createdAt,value
2023-03-17T01:43:05.981Z,500.00
2023-03-17T01:51:25.619Z,500.00
2023-03-17T02:08:24.133Z,500.00
2023-03-17T02:16:48.505Z,500.00
2023-03-17T04:08:16.825Z,500.00
2023-03-17T04:33:54.670Z,500.00
2023-03-17T04:37:55.391Z,503.00
2023-03-17T04:59:27.106Z,500.00
2023-03-17T05:07:43.866Z,500.00
2023-03-17T06:21:31.593Z,500.00
2023-03-17T06:25:32.244Z,500.00
2023-03-17T06:29:31.356Z,442.00
2023-03-17T06:33:31.450Z,497.00
2023-03-17T06:41:50.258Z,500.00
2023-03-17T06:45:51.687Z,515.00
2023-03-17T06:49:51.091Z,465.00
2023-03-17T06:58:09.257Z,500.00
2023-03-17T07:02:10.777Z,559.00
2023-03-17T07:06:09.666Z,660.00
2023-03-17T07:10:09.497Z,498.00
2023-03-17T07:14:09.489Z,468.00
2023-03-17T07:18:09.742Z,500.00
2023-03-17T07:23:30.999Z,500.00
2023-03-17T07:31:50.925Z,500.00
2023-03-17T07:35:51.850Z,505.00
2023-03-17T07:39:51.079Z,400.00
2023-03-17T07:43:50.558Z,2124.00
2023-03-17T07:47:50.623Z,2493.00
2023-03-17T07:51:51.772Z,1932.00
2023-03-17T07:55:50.201Z,2052.00
2023-03-17T07:59:50.208Z,2076.00
2023-03-17T08:03:49.459Z,1900.00
2023-03-17T08:07:49.244Z,1903.00
2023-03-17T08:11:49.019Z,1771.00
2023-03-17T08:15:48.739Z,2103.00
2023-03-17T08:19:48.480Z,2299.00
2023-03-17T08:23:48.697Z,1799.00
2023-03-17T08:27:48.284Z,1169.00
2023-03-17T08:31:47.739Z,1605.00
2023-03-17T08:35:47.632Z,1473.00
2023-03-17T08:39:47.710Z,754.00
2023-03-17T08:48:05.294Z,500.00
2023-03-17T08:52:05.968Z,554.00
2023-03-17T08:56:06.243Z,651.00
2023-03-17T09:04:25.546Z,500.00
2023-03-17T09:17:05.792Z,500.00
2023-03-17T09:25:22.789Z,500.00
2023-03-17T09:29:23.500Z,500.00
2023-03-17T09:33:22.734Z,657.00
2023-03-17T09:37:22.867Z,593.00
2023-03-17T09:41:22.163Z,588.00
2023-03-17T09:45:21.722Z,530.00
2023-03-17T09:49:21.372Z,400.00
2023-03-17T09:53:21.741Z,400.00
2023-03-17T09:57:20.910Z,501.00
2023-03-17T10:05:40.316Z,500.00
2023-03-17T10:13:59.231Z,500.00
2023-03-17T10:17:59.889Z,502.00
2023-03-17T10:21:59.973Z,689.00
2023-03-17T10:25:59.897Z,922.00
2023-03-17T10:29:59.844Z,653.00
2023-03-17T10:33:59.836Z,565.00
2023-03-17T10:38:13.751Z,400.00
2023-03-17T10:41:59.807Z,400.00
2023-03-17T10:45:59.293Z,400.00
2023-03-17T10:49:58.790Z,400.00
2023-03-17T10:53:58.802Z,400.00
2023-03-17T10:57:58.372Z,400.00
2023-03-17T11:01:57.950Z,701.00
2023-03-17T11:05:57.828Z,1470.00
2023-03-17T11:09:57.813Z,930.00
2023-03-17T11:13:57.348Z,2533.00
2023-03-17T11:17:56.900Z,2685.00
2023-03-17T11:26:15.169Z,500.00
2023-03-17T11:30:16.013Z,549.00
2023-03-17T11:34:15.514Z,477.00
2023-03-17T11:38:15.509Z,935.00
2023-03-17T11:42:15.564Z,679.00
2023-03-17T11:46:16.114Z,537.00
2023-03-17T11:50:15.632Z,1233.00
2023-03-17T11:54:16.503Z,1047.00
2023-03-17T11:58:16.013Z,1151.00
2023-03-17T12:02:15.545Z,901.00
2023-03-17T12:06:15.553Z,582.00
2023-03-17T12:10:15.725Z,519.00
2023-03-17T12:14:15.634Z,534.00
2023-03-17T12:18:15.079Z,756.00
2023-03-17T12:22:15.029Z,495.00
2023-03-17T12:26:14.545Z,545.00
2023-03-17T12:30:14.673Z,496.00
2023-03-17T12:34:14.715Z,579.00
2023-03-17T12:38:14.028Z,567.00
2023-03-17T12:42:14.124Z,1208.00
2023-03-17T12:46:13.961Z,908.00
2023-03-17T12:50:14.037Z,1433.00
2023-03-17T12:54:14.140Z,1446.00
2023-03-17T12:58:13.464Z,599.00
2023-03-17T13:02:13.218Z,1520.00
2023-03-17T13:06:13.037Z,933.00
2023-03-17T13:10:12.876Z,927.00
2023-03-17T13:14:12.527Z,1590.00
2023-03-17T13:18:12.555Z,1461.00
2023-03-17T13:22:12.112Z,2406.00
2023-03-17T13:26:12.633Z,3429.00
2023-03-17T13:30:12.260Z,3503.00
2023-03-17T13:34:11.735Z,2262.00
2023-03-17T13:38:11.538Z,1285.00
2023-03-17T13:42:18.122Z,2112.00
2023-03-17T13:46:10.898Z,3080.00
2023-03-17T13:50:10.582Z,4352.00
2023-03-17T13:54:10.530Z,3510.00
2023-03-17T13:58:11.882Z,2419.00
2023-03-17T14:02:11.082Z,2163.00
2023-03-17T14:06:09.644Z,3686.00
2023-03-17T14:10:10.797Z,4336.00
2023-03-17T14:14:09.861Z,3542.00
2023-03-17T14:18:09.133Z,2922.00
2023-03-17T14:22:09.088Z,3807.00
2023-03-17T14:26:09.255Z,2344.00
2023-03-17T14:30:08.537Z,3771.00
2023-03-17T14:34:08.588Z,5415.00
2023-03-17T14:38:08.686Z,4631.00
2023-03-17T14:42:07.914Z,2823.00
2023-03-17T14:46:07.631Z,3844.00
2023-03-17T14:50:07.641Z,4013.00
2023-03-17T14:54:07.440Z,4720.00
2023-03-17T14:58:07.165Z,5058.00
2023-03-17T15:02:07.046Z,4576.00
2023-03-17T15:06:06.674Z,5436.00
2023-03-17T15:10:06.794Z,5705.00
2023-03-17T15:14:06.651Z,5772.00
2023-03-17T15:18:06.096Z,4588.00
2023-03-17T15:22:05.918Z,5539.00
2023-03-17T15:26:06.102Z,6537.00
2023-03-17T15:30:05.882Z,3389.00
2023-03-17T15:34:05.755Z,3148.00
2023-03-17T15:38:05.991Z,5970.00
2023-03-17T15:46:24.203Z,500.00
2023-03-17T15:50:24.953Z,585.00
2023-03-17T15:54:24.925Z,709.00
2023-03-17T15:58:24.276Z,403.00
2023-03-17T16:02:24.056Z,400.00
2023-03-17T16:06:23.953Z,400.00
2023-03-17T16:10:23.714Z,1025.00
2023-03-17T16:14:23.547Z,495.00
2023-03-17T16:18:23.362Z,529.00
2023-03-17T16:22:23.872Z,965.00
2023-03-17T16:26:23.455Z,1394.00
2023-03-17T16:30:23.403Z,1630.00
2023-03-17T16:34:23.340Z,3413.00
2023-03-17T16:42:41.946Z,500.00
2023-03-17T16:46:42.935Z,400.00
2023-03-17T16:50:43.121Z,535.00
2023-03-17T16:54:42.708Z,443.00
2023-03-17T16:58:42.671Z,1869.00
2023-03-17T17:02:42.675Z,400.00
2023-03-17T17:06:42.744Z,649.00
2023-03-17T17:10:42.576Z,2132.00
2023-03-17T17:14:42.451Z,4091.00
2023-03-17T17:18:42.374Z,3703.00
2023-03-17T17:22:42.453Z,3303.00
2023-03-17T17:26:42.285Z,2625.00
2023-03-17T17:30:42.369Z,3329.00
2023-03-17T17:34:42.505Z,3757.00
2023-03-17T17:38:42.640Z,3763.00
2023-03-17T17:42:42.729Z,2934.00
2023-03-17T17:46:42.654Z,3948.00
2023-03-17T17:50:42.595Z,3862.00
2023-03-17T17:59:01.137Z,500.00
2023-03-17T18:03:01.913Z,400.00
2023-03-17T18:07:01.782Z,400.00
2023-03-17T18:11:01.758Z,400.00
2023-03-17T18:15:01.897Z,400.00
2023-03-17T18:19:01.668Z,581.00
2023-03-17T18:23:01.773Z,476.00
2023-03-17T18:27:02.050Z,567.00
2023-03-17T18:31:01.966Z,625.00
2023-03-17T18:35:01.931Z,1453.00
2023-03-17T18:39:02.052Z,1135.00
2023-03-17T18:43:02.197Z,763.00
2023-03-17T18:47:02.346Z,528.00
2023-03-17T18:51:02.489Z,693.00
2023-03-17T18:55:02.584Z,713.00
2023-03-17T18:59:02.948Z,778.00
2023-03-17T19:07:25.026Z,500.00
2023-03-17T19:15:41.672Z,500.00
2023-03-17T19:24:35.608Z,500.00
2023-03-17T19:32:55.585Z,500.00
2023-03-17T19:36:55.823Z,400.00
2023-03-17T19:40:55.189Z,400.00
2023-03-17T19:54:29.580Z,500.00
2023-03-17T20:02:50.274Z,500.00
2023-03-17T20:11:08.244Z,500.00
2023-03-17T20:32:11.312Z,500.00
2023-03-17T20:40:31.406Z,500.00
2023-03-17T20:57:09.968Z,500.00
2023-03-17T21:05:31.102Z,500.00
2023-03-17T21:13:48.414Z,500.00
2023-03-17T21:22:07.402Z,500.00
2023-03-17T21:26:08.278Z,400.00
2023-03-17T21:30:07.930Z,400.00
2023-03-17T21:38:27.915Z,500.00
2023-03-17T21:46:49.163Z,500.00
2023-03-17T21:55:05.112Z,500.00
2023-03-17T22:03:24.728Z,500.00
2023-03-17T22:11:43.700Z,500.00
2023-03-17T22:20:03.988Z,500.00
2023-03-17T22:28:23.787Z,500.00
2023-03-17T22:36:43.154Z,500.00
